Time;durP1;ratioP1;P1;durP2;ratioP2;P2;SDS_P1;SDS_P2;PMS_P1;PMS_P2;Temp;Humidity;BMP_temperature;BMP_pressure;BME280_temperature;BME280_humidity;BME280_pressure;Samples;Min_cycle;Max_cycle;Signal;HPM_P1;HPM_P2
2022/04/04 00:00:47;;;;;;;;;;;;;;;;;;5018052;28;19949;-79
2022/04/04 00:03:13;;;;;;;;;;;;;;;;;;5018110;28;20464;-79
2022/04/04 00:05:39;;;;;;;;;;;;;;;;;;5016082;28;19962;-79
2022/04/04 00:08:05;;;;;;;;;;;;;;;;;;5005444;28;19965;-79
2022/04/04 00:10:31;;;;;;;;;;;;;;;;;;5011657;28;20693;-79
2022/04/04 00:12:58;;;;;;;;;;;;;;;;;;5009753;28;19963;-79
2022/04/04 00:15:24;;;;;;;;;;;;;;;;;;5009616;28;20056;-79
2022/04/04 00:17:50;;;;;;;;;;;;;;;;;;5000565;28;19991;-79
2022/04/04 00:20:16;;;;;;;;;;;;;;;;;;5014816;28;19941;-79
2022/04/04 00:22:43;;;;;;;;;;;;;;;;;;5014361;28;19949;-80
2022/04/04 00:25:09;;;;;;;;;;;;;;;;;;4999479;28;19965;-79
2022/04/04 00:27:36;;;;;;;;;;;;;;;;;;5023982;28;19965;-80
2022/04/04 00:30:03;;;;;;;;;;;;;;;;;;5007602;28;20376;-78
2022/04/04 00:32:29;;;;;;;;;;;;;;;;;;5022022;28;19957;-79
2022/04/04 00:34:55;;;;;;;;;;;;;;;;;;5013080;28;19945;-78
2022/04/04 00:37:21;;;;;;;;;;;;;;;;;;5011014;28;19953;-79
2022/04/04 00:39:48;;;;;;;;;;;;;;;;;;4995442;28;19972;-79
2022/04/04 00:42:14;;;;;;;;;;;;;;;;;;5030795;28;19952;-79
2022/04/04 00:44:40;;;;;;;;;;;;;;;;;;5011968;28;19921;-79
2022/04/04 00:47:06;;;;;;;;;;;;;;;;;;5023033;28;20562;-79
2022/04/04 00:49:32;;;;;;;;;;;;;;;;;;5008866;28;19968;-79
2022/04/04 00:51:59;;;;;;;;;;;;;;;;;;5000862;28;19956;-78
2022/04/04 00:54:25;;;;;;;;;;;;;;;;;;5012858;28;19980;-79
2022/04/04 00:56:51;;;;;;;;;;;;;;;;;;5005759;28;19914;-78
2022/04/04 00:59:17;;;;;;;;;;;;;;;;;;5003577;28;19964;-79
2022/04/04 01:01:44;;;;;;;;;;;;;;;;;;5005149;28;20513;-78
2022/04/04 01:04:12;;;;;;;;;;;;;;;;;;5013526;28;20018;-78
2022/04/04 01:06:39;;;;;;;;;;;;;;;;;;5013563;28;20448;-79
2022/04/04 01:09:05;;;;;;;;;;;;;;;;;;5008062;28;20405;-79
2022/04/04 01:11:31;;;;;;;;;;;;;;;;;;5012915;28;19944;-79
2022/04/04 01:13:57;;;;;;;;;;;;;;;;;;4996032;28;19957;-79
2022/04/04 01:16:23;;;;;;;;;;;;;;;;;;4995934;28;19961;-79
2022/04/04 01:18:50;;;;;;;;;;;;;;;;;;5017468;28;19957;-79
2022/04/04 01:21:16;;;;;;;;;;;;;;;;;;5000320;28;20154;-79
2022/04/04 01:23:42;;;;;;;;;;;;;;;;;;5014719;28;19960;-78
2022/04/04 01:26:09;;;;;;;;;;;;;;;;;;5012534;28;19975;-78
2022/04/04 01:28:35;;;;;;;;;;;;;;;;;;4998874;28;20383;-79
2022/04/04 01:31:01;;;;;;;;;;;;;;;;;;5013486;28;19948;-79
2022/04/04 01:33:30;;;;;;;;;;;;;;;;;;5009641;28;20390;-80
2022/04/04 01:35:57;;;;;;;;;;;;;;;;;;5020446;28;19952;-79
2022/04/04 01:38:24;;;;;;;;;;;;;;;;;;5014801;28;19940;-79
2022/04/04 01:40:50;;;;;;;;;;;;;;;;;;5007785;28;20023;-79
2022/04/04 01:43:16;;;;;;;;;;;;;;;;;;5018634;28;20728;-79
2022/04/04 01:48:27;;;;;;;;;;;;;;;;;;5006122;28;21260;-79
2022/04/04 01:50:54;;;;;;;;;;;;;;;;;;5011450;28;20393;-79
2022/04/04 01:53:25;;;;;;;;;;;;;;;;;;5007765;28;19972;-79
2022/04/04 01:55:52;;;;;;;;;;;;;;;;;;5020653;28;19918;-79
2022/04/04 01:58:18;;;;;;;;;;;;;;;;;;5004091;28;19957;-80
2022/04/04 02:00:44;;;;;;;;;;;;;;;;;;5026802;28;19995;-80
2022/04/04 02:03:10;;;;;;;;;;;;;;;;;;5007025;28;21220;-80
2022/04/04 02:05:37;;;;;;;;;;;;;;;;;;5014154;28;20392;-80
2022/04/04 02:08:03;;;;;;;;;;;;;;;;;;5010326;28;19944;-80
2022/04/04 02:10:29;;;;;;;;;;;;;;;;;;5025697;28;20349;-80
2022/04/04 02:12:55;;;;;;;;;;;;;;;;;;5006959;28;19961;-81
2022/04/04 02:15:22;;;;;;;;;;;;;;;;;;4990623;28;19930;-80
2022/04/04 02:17:48;;;;;;;;;;;;;;;;;;5021072;28;19967;-80
2022/04/04 02:20:14;;;;;;;;;;;;;;;;;;5027918;28;20381;-79
2022/04/04 02:22:40;;;;;;;;;;;;;;;;;;5024039;28;19949;-79
2022/04/04 02:25:06;;;;;;;;;;;;;;;;;;5010880;28;20385;-80
2022/04/04 02:27:33;;;;;;;;;;;;;;;;;;5021146;28;19934;-80
2022/04/04 02:29:59;;;;;;;;;;;;;;;;;;5010482;28;19963;-80
2022/04/04 02:32:25;;;;;;;;;;;;;;;;;;5001909;28;20538;-80
2022/04/04 02:34:51;;;;;;;;;;;;;;;;;;5008642;28;19960;-79
2022/04/04 02:37:18;;;;;;;;;;;;;;;;;;5017392;28;19964;-81
2022/04/04 02:39:44;;;;;;;;;;;;;;;;;;5017459;28;19957;-81
2022/04/04 02:42:10;;;;;;;;;;;;;;;;;;5028237;28;19964;-80
2022/04/04 02:44:36;;;;;;;;;;;;;;;;;;4987512;28;19953;-81
2022/04/04 02:47:03;;;;;;;;;;;;;;;;;;5010769;28;20026;-80
2022/04/04 02:49:29;;;;;;;;;;;;;;;;;;5013355;28;19948;-80
2022/04/04 02:51:55;;;;;;;;;;;;;;;;;;5007135;28;19956;-80
2022/04/04 02:54:21;;;;;;;;;;;;;;;;;;5016538;28;19972;-80
2022/04/04 02:56:48;;;;;;;;;;;;;;;;;;5026276;28;19957;-80
2022/04/04 02:59:14;;;;;;;;;;;;;;;;;;5007660;28;19953;-79
2022/04/04 03:01:41;;;;;;;;;;;;;;;;;;5017943;28;20389;-80
2022/04/04 03:04:07;;;;;;;;;;;;;;;;;;5006511;28;19960;-80
2022/04/04 03:06:36;;;;;;;;;;;;;;;;;;5011238;28;19952;-79
2022/04/04 03:09:02;;;;;;;;;;;;;;;;;;5013732;28;20062;-80
2022/04/04 03:11:28;;;;;;;;;;;;;;;;;;5006842;28;19971;-79
2022/04/04 03:13:54;;;;;;;;;;;;;;;;;;4996859;28;19953;-79
2022/04/04 03:16:21;;;;;;;;;;;;;;;;;;4992041;28;20366;-79
2022/04/04 03:18:47;;;;;;;;;;;;;;;;;;4994283;28;19957;-79
2022/04/04 03:21:13;;;;;;;;;;;;;;;;;;4994169;28;20378;-79
2022/04/04 03:23:40;;;;;;;;;;;;;;;;;;4997353;28;19963;-79
2022/04/04 03:26:06;;;;;;;;;;;;;;;;;;4992175;28;19971;-79
2022/04/04 03:28:32;;;;;;;;;;;;;;;;;;4999084;28;20451;-80
2022/04/04 03:30:58;;;;;;;;;;;;;;;;;;4996220;28;20036;-79
2022/04/04 03:33:25;;;;;;;;;;;;;;;;;;4998389;28;20434;-79
2022/04/04 03:35:51;;;;;;;;;;;;;;;;;;5008622;28;19965;-79
2022/04/04 03:38:17;;;;;;;;;;;;;;;;;;4999571;28;19949;-80
2022/04/04 03:40:43;;;;;;;;;;;;;;;;;;4997927;28;20202;-79
2022/04/04 03:43:10;;;;;;;;;;;;;;;;;;4997090;28;19953;-80
2022/04/04 03:45:36;;;;;;;;;;;;;;;;;;5002782;28;19960;-80
2022/04/04 03:48:02;;;;;;;;;;;;;;;;;;4996094;28;20003;-81
2022/04/04 03:50:29;;;;;;;;;;;;;;;;;;5012878;28;20597;-81
2022/04/04 03:52:55;;;;;;;;;;;;;;;;;;5017079;28;19972;-79
2022/04/04 03:55:22;;;;;;;;;;;;;;;;;;5011643;28;20388;-81
2022/04/04 03:57:48;;;;;;;;;;;;;;;;;;4999464;28;20017;-82
2022/04/04 04:00:14;;;;;;;;;;;;;;;;;;4998278;28;19952;-80
2022/04/04 04:02:40;;;;;;;;;;;;;;;;;;5010863;28;19953;-79
2022/04/04 04:05:06;;;;;;;;;;;;;;;;;;4997629;28;19918;-80
2022/04/04 04:07:33;;;;;;;;;;;;;;;;;;5010330;28;19965;-79
2022/04/04 04:09:59;;;;;;;;;;;;;;;;;;5000433;28;19917;-78
2022/04/04 04:12:25;;;;;;;;;;;;;;;;;;4996012;28;20396;-79
2022/04/04 04:14:52;;;;;;;;;;;;;;;;;;4997343;28;19964;-78
2022/04/04 04:17:18;;;;;;;;;;;;;;;;;;4997859;28;19964;-80
2022/04/04 04:22:30;;;;;;;;;;;;;;;;;;4998689;28;21014;-79
2022/04/04 04:24:56;;;;;;;;;;;;;;;;;;5010041;28;19953;-79
2022/04/04 04:27:22;;;;;;;;;;;;;;;;;;5023689;28;19969;-80
2022/04/04 04:29:48;;;;;;;;;;;;;;;;;;5002184;28;19968;-80
2022/04/04 04:32:14;;;;;;;;;;;;;;;;;;5013909;28;20019;-80
2022/04/04 04:34:46;;;;;;;;;;;;;;;;;;5013829;28;19913;-78
2022/04/04 04:37:15;;;;;;;;;;;;;;;;;;5017465;28;19924;-77
2022/04/04 04:39:41;;;;;;;;;;;;;;;;;;5017054;28;19957;-80
2022/04/04 04:42:07;;;;;;;;;;;;;;;;;;5013474;28;19994;-80
2022/04/04 04:44:36;;;;;;;;;;;;;;;;;;5009826;28;19952;-79
2022/04/04 04:47:02;;;;;;;;;;;;;;;;;;5015031;28;19945;-78
2022/04/04 04:49:28;;;;;;;;;;;;;;;;;;5022565;28;20340;-79
2022/04/04 04:51:55;;;;;;;;;;;;;;;;;;4996106;28;19946;-79
2022/04/04 04:54:21;;;;;;;;;;;;;;;;;;5008675;28;19964;-78
2022/04/04 04:56:47;;;;;;;;;;;;;;;;;;5022711;28;19949;-79
2022/04/04 04:59:13;;;;;;;;;;;;;;;;;;5013351;28;19945;-79
2022/04/04 05:01:40;;;;;;;;;;;;;;;;;;5022039;28;19957;-79
2022/04/04 05:04:06;;;;;;;;;;;;;;;;;;5010574;28;20391;-79
2022/04/04 05:06:32;;;;;;;;;;;;;;;;;;5006380;28;20009;-80
2022/04/04 05:08:59;;;;;;;;;;;;;;;;;;5006975;28;19945;-80
2022/04/04 05:11:26;;;;;;;;;;;;;;;;;;5017094;28;20313;-80
2022/04/04 05:13:52;;;;;;;;;;;;;;;;;;4999851;28;19958;-79
2022/04/04 05:16:18;;;;;;;;;;;;;;;;;;5009913;28;19956;-79
2022/04/04 05:18:47;;;;;;;;;;;;;;;;;;5014465;28;20004;-79
2022/04/04 05:21:13;;;;;;;;;;;;;;;;;;5013090;28;20389;-79
2022/04/04 05:23:39;;;;;;;;;;;;;;;;;;5006923;28;19968;-79
2022/04/04 05:26:05;;;;;;;;;;;;;;;;;;5009123;28;20403;-80
2022/04/04 05:28:32;;;;;;;;;;;;;;;;;;5017050;28;19944;-79
2022/04/04 05:31:01;;;;;;;;;;;;;;;;;;5015643;28;19949;-79
2022/04/04 05:33:27;;;;;;;;;;;;;;;;;;5014199;28;19961;-79
2022/04/04 05:35:53;;;;;;;;;;;;;;;;;;5018789;28;19956;-79
2022/04/04 05:38:21;;;;;;;;;;;;;;;;;;4996281;28;20233;-80
2022/04/04 05:40:48;;;;;;;;;;;;;;;;;;5001542;28;19952;-80
2022/04/04 05:43:14;;;;;;;;;;;;;;;;;;5007301;28;19933;-80
2022/04/04 05:45:40;;;;;;;;;;;;;;;;;;5017023;28;19953;-80
2022/04/04 05:48:10;;;;;;;;;;;;;;;;;;5005421;28;19953;-80
2022/04/04 05:50:36;;;;;;;;;;;;;;;;;;5022521;28;19948;-80
2022/04/04 05:53:02;;;;;;;;;;;;;;;;;;5025120;28;19968;-79
2022/04/04 05:55:28;;;;;;;;;;;;;;;;;;5008648;28;19983;-80
2022/04/04 05:57:55;;;;;;;;;;;;;;;;;;5011939;28;19979;-79
2022/04/04 06:00:22;;;;;;;;;;;;;;;;;;5009758;28;19948;-80
2022/04/04 06:02:48;;;;;;;;;;;;;;;;;;5011027;28;19946;-80
2022/04/04 06:05:14;;;;;;;;;;;;;;;;;;4982454;28;20403;-82
2022/04/04 06:07:40;;;;;;;;;;;;;;;;;;5000114;28;19957;-80
2022/04/04 06:10:07;;;;;;;;;;;;;;;;;;4996865;28;20535;-80
2022/04/04 06:12:34;;;;;;;;;;;;;;;;;;5013217;28;19957;-79
2022/04/04 06:15:01;;;;;;;;;;;;;;;;;;5012891;28;20569;-80
2022/04/04 06:17:27;;;;;;;;;;;;;;;;;;5002571;28;19953;-80
2022/04/04 06:19:55;;;;;;;;;;;;;;;;;;5005181;28;19968;-77
2022/04/04 06:22:22;;;;;;;;;;;;;;;;;;5006786;28;19953;-78
2022/04/04 06:24:49;;;;;;;;;;;;;;;;;;5013930;28;19953;-78
2022/04/04 06:27:15;;;;;;;;;;;;;;;;;;4993935;28;19968;-78
2022/04/04 06:29:42;;;;;;;;;;;;;;;;;;5002688;28;20544;-78
2022/04/04 06:32:09;;;;;;;;;;;;;;;;;;5002015;28;19950;-77
2022/04/04 06:34:35;;;;;;;;;;;;;;;;;;5004054;28;19957;-76
2022/04/04 06:37:01;;;;;;;;;;;;;;;;;;4999920;28;19948;-77
2022/04/04 06:39:27;;;;;;;;;;;;;;;;;;5002503;28;19953;-77
2022/04/04 06:41:54;;;;;;;;;;;;;;;;;;5020704;28;19941;-77
2022/04/04 06:44:20;;;;;;;;;;;;;;;;;;5007530;28;20393;-77
2022/04/04 06:46:47;;;;;;;;;;;;;;;;;;5008575;28;19948;-77
2022/04/04 06:49:13;;;;;;;;;;;;;;;;;;5014995;28;19963;-77
2022/04/04 06:51:39;;;;;;;;;;;;;;;;;;5019923;28;19953;-77
2022/04/04 06:54:05;;;;;;;;;;;;;;;;;;5010123;28;19960;-77
2022/04/04 06:56:32;;;;;;;;;;;;;;;;;;5004198;28;20322;-77
2022/04/04 06:58:58;;;;;;;;;;;;;;;;;;5023434;28;19956;-77
2022/04/04 07:01:24;;;;;;;;;;;;;;;;;;5010653;28;20006;-77
2022/04/04 07:03:50;;;;;;;;;;;;;;;;;;5004319;28;19959;-77
2022/04/04 07:06:16;;;;;;;;;;;;;;;;;;5001725;28;19945;-78
2022/04/04 07:08:43;;;;;;;;;;;;;;;;;;4996351;28;20494;-77
2022/04/04 07:11:10;;;;;;;;;;;;;;;;;;5010402;28;19976;-77
2022/04/04 07:13:36;;;;;;;;;;;;;;;;;;5009512;28;20362;-77
2022/04/04 07:16:02;;;;;;;;;;;;;;;;;;4995621;28;19957;-77
2022/04/04 07:18:29;;;;;;;;;;;;;;;;;;4996996;28;21524;-77
2022/04/04 07:20:55;;;;;;;;;;;;;;;;;;5020055;28;20551;-78
2022/04/04 07:23:21;;;;;;;;;;;;;;;;;;5009350;28;19953;-78
2022/04/04 07:25:47;;;;;;;;;;;;;;;;;;5018471;28;20004;-78
2022/04/04 07:28:14;;;;;;;;;;;;;;;;;;5006171;28;19957;-77
2022/04/04 07:30:41;;;;;;;;;;;;;;;;;;5005620;28;19956;-78
2022/04/04 07:33:07;;;;;;;;;;;;;;;;;;5014806;28;20347;-77
2022/04/04 07:35:33;;;;;;;;;;;;;;;;;;5001889;28;19960;-77
2022/04/04 07:37:59;;;;;;;;;;;;;;;;;;5005896;28;20023;-78
2022/04/04 07:40:27;;;;;;;;;;;;;;;;;;5013045;28;19956;-77
2022/04/04 07:42:56;;;;;;;;;;;;;;;;;;5012408;28;19921;-77
2022/04/04 07:45:22;;;;;;;;;;;;;;;;;;5016973;28;19949;-78
2022/04/04 07:47:52;;;;;;;;;;;;;;;;;;5008747;28;19960;-78
2022/04/04 07:50:18;;;;;;;;;;;;;;;;;;5002401;28;20334;-77
2022/04/04 07:52:44;;;;;;;;;;;;;;;;;;5009609;28;19960;-78
2022/04/04 07:55:10;;;;;;;;;;;;;;;;;;5014220;28;20583;-78
2022/04/04 07:57:36;;;;;;;;;;;;;;;;;;5019470;28;19952;-77
2022/04/04 08:00:04;;;;;;;;;;;;;;;;;;5007666;28;20069;-77
2022/04/04 08:02:30;;;;;;;;;;;;;;;;;;5005742;28;19959;-78
2022/04/04 08:04:56;;;;;;;;;;;;;;;;;;5015048;28;20332;-78
2022/04/04 08:07:22;;;;;;;;;;;;;;;;;;5005023;28;19945;-78
2022/04/04 08:09:49;;;;;;;;;;;;;;;;;;4998012;28;19914;-78
2022/04/04 08:12:15;;;;;;;;;;;;;;;;;;4994285;28;19949;-78
2022/04/04 08:14:41;;;;;;;;;;;;;;;;;;5021421;28;19965;-78
2022/04/04 08:17:08;;;;;;;;;;;;;;;;;;4999681;28;19955;-78
2022/04/04 08:19:35;;;;;;;;;;;;;;;;;;5011590;28;19968;-75
2022/04/04 08:22:01;;;;;;;;;;;;;;;;;;5014354;28;19957;-76
2022/04/04 08:24:28;;;;;;;;;;;;;;;;;;5007451;28;19922;-76
2022/04/04 08:26:54;;;;;;;;;;;;;;;;;;5016226;28;19968;-76
2022/04/04 08:29:20;;;;;;;;;;;;;;;;;;4998843;28;19949;-76
2022/04/04 08:31:46;;;;;;;;;;;;;;;;;;5011568;28;19992;-78
2022/04/04 08:34:12;;;;;;;;;;;;;;;;;;5018308;28;19968;-77
2022/04/04 08:36:39;;;;;;;;;;;;;;;;;;5006627;28;19987;-75
2022/04/04 08:39:06;;;;;;;;;;;;;;;;;;4993393;28;19944;-76
2022/04/04 08:41:33;;;;;;;;;;;;;;;;;;5003873;28;19991;-77
2022/04/04 08:44:02;;;;;;;;;;;;;;;;;;5008071;28;19940;-77
2022/04/04 08:46:28;;;;;;;;;;;;;;;;;;5006755;28;20513;-77
2022/04/04 08:48:58;;;;;;;;;;;;;;;;;;5016375;28;20578;-78
2022/04/04 08:51:24;;;;;;;;;;;;;;;;;;5016347;28;20004;-77
2022/04/04 08:53:50;;;;;;;;;;;;;;;;;;4997955;28;19957;-76
2022/04/04 08:56:18;;;;;;;;;;;;;;;;;;5019567;28;20002;-77
2022/04/04 08:58:44;;;;;;;;;;;;;;;;;;4999027;28;19953;-77
2022/04/04 09:01:10;;;;;;;;;;;;;;;;;;5009271;28;19999;-77
2022/04/04 09:03:36;;;;;;;;;;;;;;;;;;5008348;28;19957;-76
2022/04/04 09:06:03;;;;;;;;;;;;;;;;;;5013125;28;20003;-77
2022/04/04 09:08:29;;;;;;;;;;;;;;;;;;5000767;28;20654;-76
2022/04/04 09:10:56;;;;;;;;;;;;;;;;;;5000143;28;19953;-77
2022/04/04 09:13:22;;;;;;;;;;;;;;;;;;5004594;28;20043;-76
2022/04/04 09:15:48;;;;;;;;;;;;;;;;;;5007062;28;19964;-77
2022/04/04 09:18:15;;;;;;;;;;;;;;;;;;5015503;28;20361;-76
2022/04/04 09:20:41;;;;;;;;;;;;;;;;;;5004077;28;19936;-77
2022/04/04 09:23:07;;;;;;;;;;;;;;;;;;5013082;28;19952;-77
2022/04/04 09:25:33;;;;;;;;;;;;;;;;;;5006340;28;20015;-78
2022/04/04 09:27:59;;;;;;;;;;;;;;;;;;5000127;28;19968;-77
2022/04/04 09:30:25;;;;;;;;;;;;;;;;;;5008118;28;19945;-78
2022/04/04 09:32:53;;;;;;;;;;;;;;;;;;4997700;28;19969;-77
2022/04/04 09:35:21;;;;;;;;;;;;;;;;;;5011242;28;20582;-77
2022/04/04 09:37:47;;;;;;;;;;;;;;;;;;5013427;28;19963;-77
2022/04/04 09:40:15;;;;;;;;;;;;;;;;;;5006837;28;19913;-77
2022/04/04 09:42:42;;;;;;;;;;;;;;;;;;5013961;28;20008;-77
2022/04/04 09:45:09;;;;;;;;;;;;;;;;;;5000821;28;19953;-77
2022/04/04 09:47:35;;;;;;;;;;;;;;;;;;5007940;28;20348;-77
2022/04/04 09:50:04;;;;;;;;;;;;;;;;;;4995607;28;19926;-77
2022/04/04 09:52:30;;;;;;;;;;;;;;;;;;5011058;28;19953;-77
2022/04/04 09:54:56;;;;;;;;;;;;;;;;;;5013731;28;19967;-77
2022/04/04 09:57:27;;;;;;;;;;;;;;;;;;5007704;28;20010;-77
2022/04/04 09:59:54;;;;;;;;;;;;;;;;;;5008833;28;19957;-78
2022/04/04 10:02:20;;;;;;;;;;;;;;;;;;5024305;28;20011;-78
2022/04/04 10:04:46;;;;;;;;;;;;;;;;;;5011180;28;19963;-77
2022/04/04 10:07:13;;;;;;;;;;;;;;;;;;5000188;28;20413;-78
2022/04/04 10:09:39;;;;;;;;;;;;;;;;;;5006551;28;19957;-78
2022/04/04 10:12:05;;;;;;;;;;;;;;;;;;5014370;28;19967;-78
2022/04/04 10:14:31;;;;;;;;;;;;;;;;;;5006085;28;19949;-77
2022/04/04 10:16:58;;;;;;;;;;;;;;;;;;5018494;28;19945;-78
2022/04/04 10:19:25;;;;;;;;;;;;;;;;;;5013380;28;19967;-78
2022/04/04 10:21:51;;;;;;;;;;;;;;;;;;4990265;28;19918;-78
2022/04/04 10:24:18;;;;;;;;;;;;;;;;;;5003203;28;19956;-78
2022/04/04 10:26:44;;;;;;;;;;;;;;;;;;4990739;28;20004;-77
2022/04/04 10:29:11;;;;;;;;;;;;;;;;;;5010092;28;20433;-78
2022/04/04 10:31:38;;;;;;;;;;;;;;;;;;5010360;28;19953;-78
2022/04/04 10:34:04;;;;;;;;;;;;;;;;;;5012600;28;20420;-77
2022/04/04 10:36:30;;;;;;;;;;;;;;;;;;5018114;28;19952;-78
2022/04/04 10:38:57;;;;;;;;;;;;;;;;;;5012029;28;19971;-78
2022/04/04 10:41:23;;;;;;;;;;;;;;;;;;5018338;28;19949;-77
2022/04/04 10:43:52;;;;;;;;;;;;;;;;;;5017095;28;19972;-77
2022/04/04 10:46:27;;;;;;;;;;;;;;;;;;4993923;28;19917;-77
2022/04/04 10:48:54;;;;;;;;;;;;;;;;;;5022145;28;20199;-79
2022/04/04 10:51:20;;;;;;;;;;;;;;;;;;5005505;28;19964;-77
2022/04/04 10:53:46;;;;;;;;;;;;;;;;;;5006947;28;19969;-78
2022/04/04 10:56:12;;;;;;;;;;;;;;;;;;5011841;28;20077;-78
2022/04/04 10:58:39;;;;;;;;;;;;;;;;;;5007296;28;19973;-77
2022/04/04 11:01:09;;;;;;;;;;;;;;;;;;5011583;28;19964;-77
2022/04/04 11:03:35;;;;;;;;;;;;;;;;;;5029022;28;19964;-77
2022/04/04 11:08:46;;;;;;;;;;;;;;;;;;5015210;28;19957;-78
2022/04/04 11:11:12;;;;;;;;;;;;;;;;;;5005714;28;20493;-78
2022/04/04 11:13:38;;;;;;;;;;;;;;;;;;5003064;28;19971;-77
2022/04/04 11:16:07;;;;;;;;;;;;;;;;;;5015164;28;20439;-78
2022/04/04 11:18:33;;;;;;;;;;;;;;;;;;5012854;28;20393;-77
2022/04/04 11:20:59;;;;;;;;;;;;;;;;;;5005670;28;19995;-78
2022/04/04 11:23:26;;;;;;;;;;;;;;;;;;5012234;28;20406;-78
2022/04/04 11:25:55;;;;;;;;;;;;;;;;;;5009652;28;19996;-77
2022/04/04 11:28:25;;;;;;;;;;;;;;;;;;4999277;28;20377;-78
2022/04/04 11:30:52;;;;;;;;;;;;;;;;;;5017415;28;20021;-77
2022/04/04 11:33:22;;;;;;;;;;;;;;;;;;5009121;28;21851;-78
2022/04/04 11:35:48;;;;;;;;;;;;;;;;;;5017417;28;19952;-77
2022/04/04 11:38:18;;;;;;;;;;;;;;;;;;5011428;28;20027;-78
2022/04/04 11:40:49;;;;;;;;;;;;;;;;;;5001027;28;20304;-78
2022/04/04 11:43:16;;;;;;;;;;;;;;;;;;5004065;28;19949;-78
2022/04/04 11:45:43;;;;;;;;;;;;;;;;;;5023169;28;19980;-78
2022/04/04 11:48:14;;;;;;;;;;;;;;;;;;5018293;28;20358;-77
2022/04/04 11:50:40;;;;;;;;;;;;;;;;;;4989190;28;20003;-77
2022/04/04 11:53:06;;;;;;;;;;;;;;;;;;5008825;28;20037;-77
2022/04/04 11:55:32;;;;;;;;;;;;;;;;;;5000192;28;19964;-77
2022/04/04 11:57:59;;;;;;;;;;;;;;;;;;4997637;28;20402;-77
2022/04/04 12:00:26;;;;;;;;;;;;;;;;;;4995313;28;19960;-77
2022/04/04 12:02:52;;;;;;;;;;;;;;;;;;5005481;28;20369;-77
2022/04/04 12:05:23;;;;;;;;;;;;;;;;;;4997958;28;20437;-77
2022/04/04 12:07:49;;;;;;;;;;;;;;;;;;5002765;28;19968;-77
2022/04/04 12:10:17;;;;;;;;;;;;;;;;;;5010869;28;20007;-77
2022/04/04 12:12:45;;;;;;;;;;;;;;;;;;5000323;28;19958;-77
2022/04/04 12:15:11;;;;;;;;;;;;;;;;;;4998845;28;19956;-77
2022/04/04 12:17:37;;;;;;;;;;;;;;;;;;5009584;28;19952;-77
2022/04/04 12:20:03;;;;;;;;;;;;;;;;;;5023618;28;20098;-77
2022/04/04 12:25:14;;;;;;;;;;;;;;;;;;5005750;28;19968;-77
2022/04/04 12:27:40;;;;;;;;;;;;;;;;;;5004438;28;19979;-77
2022/04/04 12:30:07;;;;;;;;;;;;;;;;;;5024107;28;19984;-77
2022/04/04 12:32:33;;;;;;;;;;;;;;;;;;5001257;28;19941;-76
2022/04/04 12:34:59;;;;;;;;;;;;;;;;;;5008627;28;20022;-77
2022/04/04 12:37:25;;;;;;;;;;;;;;;;;;5002678;28;19948;-76
2022/04/04 12:39:52;;;;;;;;;;;;;;;;;;5015896;28;19940;-76
2022/04/04 12:42:21;;;;;;;;;;;;;;;;;;5016987;28;19968;-76
2022/04/04 12:44:48;;;;;;;;;;;;;;;;;;5014482;28;19956;-76
2022/04/04 12:47:15;;;;;;;;;;;;;;;;;;4999706;28;19949;-77
2022/04/04 12:49:42;;;;;;;;;;;;;;;;;;5012721;28;19960;-76
2022/04/04 12:52:11;;;;;;;;;;;;;;;;;;5016142;28;20622;-76
2022/04/04 12:54:37;;;;;;;;;;;;;;;;;;5002193;28;19960;-77
2022/04/04 12:57:06;;;;;;;;;;;;;;;;;;5014610;28;19965;-77
2022/04/04 12:59:32;;;;;;;;;;;;;;;;;;5022015;28;20040;-77
2022/04/04 13:01:58;;;;;;;;;;;;;;;;;;4997423;28;20359;-79
2022/04/04 13:04:24;;;;;;;;;;;;;;;;;;5002332;28;19980;-78
2022/04/04 13:06:51;;;;;;;;;;;;;;;;;;4987711;28;19979;-77
2022/04/04 13:09:17;;;;;;;;;;;;;;;;;;5000558;28;19972;-77
2022/04/04 13:11:43;;;;;;;;;;;;;;;;;;5001748;28;19957;-77
2022/04/04 13:14:09;;;;;;;;;;;;;;;;;;5006169;28;19983;-75
2022/04/04 13:16:35;;;;;;;;;;;;;;;;;;5021022;28;19953;-77
2022/04/04 13:19:02;;;;;;;;;;;;;;;;;;5000300;28;19944;-78
2022/04/04 13:21:28;;;;;;;;;;;;;;;;;;5007316;28;19956;-78
2022/04/04 13:23:54;;;;;;;;;;;;;;;;;;5006623;28;19995;-79
2022/04/04 13:26:20;;;;;;;;;;;;;;;;;;5015987;28;19975;-77
2022/04/04 13:28:46;;;;;;;;;;;;;;;;;;5008299;28;19971;-78
2022/04/04 13:31:13;;;;;;;;;;;;;;;;;;5013302;28;21040;-75
2022/04/04 13:33:39;;;;;;;;;;;;;;;;;;4998632;28;19926;-77
2022/04/04 13:36:05;;;;;;;;;;;;;;;;;;5003280;28;19941;-78
2022/04/04 13:38:31;;;;;;;;;;;;;;;;;;5007809;28;19957;-75
2022/04/04 13:40:58;;;;;;;;;;;;;;;;;;5011514;28;20372;-78
2022/04/04 13:43:26;;;;;;;;;;;;;;;;;;5013674;28;19942;-75
2022/04/04 13:45:52;;;;;;;;;;;;;;;;;;4992122;28;19991;-78
2022/04/04 13:48:18;;;;;;;;;;;;;;;;;;4984163;28;20026;-76
2022/04/04 13:50:45;;;;;;;;;;;;;;;;;;4999679;28;19922;-76
2022/04/04 13:53:12;;;;;;;;;;;;;;;;;;5008032;28;19925;-76
2022/04/04 13:55:44;;;;;;;;;;;;;;;;;;5011607;28;19977;-77
2022/04/04 13:58:13;;;;;;;;;;;;;;;;;;4990034;28;20424;-78
2022/04/04 14:00:41;;;;;;;;;;;;;;;;;;4982974;28;19922;-77
2022/04/04 14:03:07;;;;;;;;;;;;;;;;;;4999557;28;19925;-77
2022/04/04 14:05:34;;;;;;;;;;;;;;;;;;5017970;28;19920;-76
2022/04/04 14:08:00;;;;;;;;;;;;;;;;;;5002844;28;19928;-76
2022/04/04 14:10:29;;;;;;;;;;;;;;;;;;5003000;28;20012;-76
2022/04/04 14:12:55;;;;;;;;;;;;;;;;;;5011602;28;19965;-77
2022/04/04 14:15:25;;;;;;;;;;;;;;;;;;5015719;28;19984;-76
2022/04/04 14:17:51;;;;;;;;;;;;;;;;;;5003623;28;19917;-76
2022/04/04 14:20:17;;;;;;;;;;;;;;;;;;5015141;28;19953;-76
2022/04/04 14:22:44;;;;;;;;;;;;;;;;;;5005556;28;19960;-76
2022/04/04 14:25:10;;;;;;;;;;;;;;;;;;5011169;28;19968;-76
2022/04/04 14:27:37;;;;;;;;;;;;;;;;;;4999182;28;20405;-76
2022/04/04 14:30:03;;;;;;;;;;;;;;;;;;5004215;28;20349;-78
2022/04/04 14:32:29;;;;;;;;;;;;;;;;;;5019220;28;19976;-77
2022/04/04 14:34:56;;;;;;;;;;;;;;;;;;4995515;28;19930;-78
2022/04/04 14:37:22;;;;;;;;;;;;;;;;;;4999337;28;19964;-78
2022/04/04 14:39:48;;;;;;;;;;;;;;;;;;5023965;28;19949;-77
2022/04/04 14:42:14;;;;;;;;;;;;;;;;;;5005313;28;19961;-77
2022/04/04 14:44:41;;;;;;;;;;;;;;;;;;4980626;28;19922;-79
2022/04/04 14:47:07;;;;;;;;;;;;;;;;;;4991716;28;19961;-76
2022/04/04 14:49:33;;;;;;;;;;;;;;;;;;5003295;28;19953;-77
2022/04/04 14:52:00;;;;;;;;;;;;;;;;;;4994564;28;19925;-77
2022/04/04 14:54:26;;;;;;;;;;;;;;;;;;5000177;28;19961;-77
2022/04/04 14:56:54;;;;;;;;;;;;;;;;;;5004730;28;19948;-78
2022/04/04 14:59:21;;;;;;;;;;;;;;;;;;5001049;28;20701;-77
2022/04/04 15:01:47;;;;;;;;;;;;;;;;;;5008671;28;19941;-77
2022/04/04 15:04:13;;;;;;;;;;;;;;;;;;5002308;28;22664;-77
2022/04/04 15:06:40;;;;;;;;;;;;;;;;;;5007419;28;20346;-77
2022/04/04 15:09:07;;;;;;;;;;;;;;;;;;5011096;28;19957;-76
2022/04/04 15:11:35;;;;;;;;;;;;;;;;;;5005791;28;20405;-77
2022/04/04 15:14:03;;;;;;;;;;;;;;;;;;5003787;28;19957;-78
2022/04/04 15:16:29;;;;;;;;;;;;;;;;;;5000798;28;20374;-78
2022/04/04 15:18:55;;;;;;;;;;;;;;;;;;5009020;28;19965;-78
2022/04/04 15:21:21;;;;;;;;;;;;;;;;;;5008773;28;19953;-77
2022/04/04 15:23:48;;;;;;;;;;;;;;;;;;5011717;28;19961;-78
2022/04/04 15:26:15;;;;;;;;;;;;;;;;;;5006375;28;19959;-77
2022/04/04 15:28:41;;;;;;;;;;;;;;;;;;5005771;28;20330;-77
2022/04/04 15:31:07;;;;;;;;;;;;;;;;;;5006805;28;20347;-78
2022/04/04 15:33:33;;;;;;;;;;;;;;;;;;5002272;28;19949;-77
2022/04/04 15:36:00;;;;;;;;;;;;;;;;;;4998161;28;19964;-77
2022/04/04 15:38:26;;;;;;;;;;;;;;;;;;5013700;28;19921;-77
2022/04/04 15:40:52;;;;;;;;;;;;;;;;;;5020019;28;19917;-77
2022/04/04 15:43:18;;;;;;;;;;;;;;;;;;5018482;28;20118;-78
2022/04/04 15:45:45;;;;;;;;;;;;;;;;;;5020979;28;19922;-77
2022/04/04 15:48:12;;;;;;;;;;;;;;;;;;4990247;28;19941;-77
2022/04/04 15:50:39;;;;;;;;;;;;;;;;;;5008582;28;19925;-77
2022/04/04 15:53:05;;;;;;;;;;;;;;;;;;5016032;28;19965;-78
2022/04/04 15:55:31;;;;;;;;;;;;;;;;;;5023179;28;19957;-78
2022/04/04 15:58:02;;;;;;;;;;;;;;;;;;5020749;28;19959;-78
2022/04/04 16:00:31;;;;;;;;;;;;;;;;;;5022273;28;20449;-78
2022/04/04 16:02:57;;;;;;;;;;;;;;;;;;5009719;28;19976;-77
2022/04/04 16:05:23;;;;;;;;;;;;;;;;;;5017712;28;19956;-77
2022/04/04 16:07:50;;;;;;;;;;;;;;;;;;4997277;28;19949;-78
2022/04/04 16:10:16;;;;;;;;;;;;;;;;;;5004670;28;19941;-78
2022/04/04 16:12:42;;;;;;;;;;;;;;;;;;5017515;28;19952;-78
2022/04/04 16:15:09;;;;;;;;;;;;;;;;;;5017727;28;19960;-78
2022/04/04 16:17:35;;;;;;;;;;;;;;;;;;5010106;28;20440;-77
2022/04/04 16:20:01;;;;;;;;;;;;;;;;;;5018385;28;19948;-77
2022/04/04 16:22:28;;;;;;;;;;;;;;;;;;4999805;28;19963;-78
2022/04/04 16:24:54;;;;;;;;;;;;;;;;;;5017289;28;19960;-79
2022/04/04 16:27:20;;;;;;;;;;;;;;;;;;5011981;28;19972;-78
2022/04/04 16:29:48;;;;;;;;;;;;;;;;;;5006626;28;19956;-78
2022/04/04 16:32:14;;;;;;;;;;;;;;;;;;5012374;28;19968;-80
2022/04/04 16:34:41;;;;;;;;;;;;;;;;;;5015233;28;19965;-78
2022/04/04 16:37:07;;;;;;;;;;;;;;;;;;5011229;28;19961;-78
2022/04/04 16:39:33;;;;;;;;;;;;;;;;;;5000773;28;19963;-78
2022/04/04 16:41:59;;;;;;;;;;;;;;;;;;5001630;28;19944;-78
2022/04/04 16:44:28;;;;;;;;;;;;;;;;;;5011313;28;19945;-77
2022/04/04 16:46:54;;;;;;;;;;;;;;;;;;5015936;28;19960;-78
2022/04/04 16:49:20;;;;;;;;;;;;;;;;;;5000814;28;19949;-75
2022/04/04 16:51:46;;;;;;;;;;;;;;;;;;5005854;28;19941;-84